Flight Track Log - Related Links

Times and Time Zones

All times are in EST time to prevent confusion due to time zone crossing. See the N58BT flight status page for this flight to view local times or setup timezone preferences in your user account.

Time Position Orientation Groundspeed Altitude Reporting Facility
EST Latitude Longitude Course Direction KTS MPH feet Rate Location/Type
Thu 10:34:51 24.9481 -81.7533 357° North 172 198 14,300  Level Miami Center
Thu 10:35:51 24.9983 -81.7531 360° North 172 198 14,500 100 Climbing Miami Center
Thu 10:36:51 25.0506 -81.7553 358° North 178 205 14,500  Level Miami Center
Thu 10:37:51 25.1047 -81.7575 358° North 183 211 14,500  Level Miami Center
Thu 10:38:51 25.1567 -81.7594 358° North 183 211 14,500  Level Miami Center
Thu 10:39:51 25.2131 -81.7594 360° North 183 211 14,500  Level Miami Center
Thu 10:40:00 25.0433 -81.7644 357° North  Level Estimated
Thu 10:40:51 25.2653 -81.7592 360° North 188 216 14,500  Level Miami Center
Thu 10:41:51 25.3175 -81.7614 358° North 188 216 14,500  Level Miami Center
Thu 10:42:51 25.3717 -81.7611 360° North 188 216 14,500  Level Miami Center
Thu 10:43:51 25.4239 -81.7633 358° North 193 222 14,500  Level Miami Center
Thu 10:44:51 25.4783 -81.7633 360° North 193 222 14,500  Level Miami Center
Thu 10:45:51 25.5325 -81.7656 358° North 193 222 14,500  Level Miami Center
Thu 10:46:51 25.5867 -81.7678 358° North 193 222 14,500 -50 Level Miami Center
Thu 10:47:51 25.6389 -81.7697 358° North 193 222 14,400 -500 Descending Miami Center
Thu 10:48:51 25.6931 -81.7742 356° North 193 222 13,500 -1,150 Descending Miami Center
Thu 10:49:51 25.7511 -81.7811 354° North 193 222 12,100 -1,300 Descending Miami Center
Thu 10:50:51 25.8050 -81.7928 349° North 193 222 10,900 -1,150 Descending Miami Center
Thu 10:51:51 25.8506 -81.8039 348° North 193 222 9,800 1,800 Descending Miami Center
Thu 10:52:51 25.9086 -81.8178 348° North 193 222 14,500 2,350 Climbing Miami Center
Thu 10:53:51 25.9603 -81.8314 347° North 193 222 14,500  Level Miami Center
Thu 10:54:51 26.0119 -81.8450 347° North 193 222 14,500  Level Miami Center
Thu 10:56:51 26.0119 -81.8450 360° North 193 222 14,500  Level Miami Center
Thu 10:58:51 26.0119 -81.8450 360° North 193 222 14,500  Level Miami Center
Thu 11:00:00 26.0513 -81.8227 27° Northeast  Level FlightAware
Thu 11:07:00 26.1500 -81.7667 22° Northeast  Level FlightAware
Thu 11:08:00 26.1524 -81.7756 22° Northeast  Level Estimated
Thu 11:09:00 26.1524 -81.7756 22° Northeast  Level Estimated
Thu 11:10:00 26.1524 -81.7756 22° Northeast  Level Estimated
Thu 11:11:00 26.1524 -81.7756 22° Northeast  Level Estimated
Thu 11:12:00 26.1524 -81.7756 22° Northeast  Level Estimated
Thu 11:13:00 26.1524 -81.7756 22° Northeast  Level Estimated
Thu 11:14:00 26.1524 -81.7756 22° Northeast  Level Estimated
Thu 11:15:00 26.1524 -81.7756 22° Northeast  Level Estimated
Thu 11:16:00 26.1524 -81.7756 22° Northeast  Level Estimated
Thu 11:17:00 26.1524 -81.7756 22° Northeast  Level Estimated

Login

Don't have an account? Register now (free) for customized features, flight alerts, and more!